map of AES home
AES - Airport
Location
City:  Ålesund, Norway
Near (Alt.):Aalesund
Name:Vigra
ICAO:ENAL
IATA:AES

Details
Type:Airport (Aerodrome, Airfield)
Use:Public/Civil
Latitude:62°33'37"N (62.560372)
Longitude:6°06'37"E (6.110164)
Datum:WGS 1984
Elevation:69 ft (21 m)
Variation:1.36°E (WMM2015 magnetic declination)
0.19° annual change
Runways:1
Longest:7592 × 148 ft (2314 × 45 m), paved

Time
Time Zone:UTC+1 (DST+2)
Local Time:

Weather
METAR:ENAL 181950Z 09006KT 070V130 CAVOK 05/M04 Q1011

Related Locations
Nearby:
Farthest:NZTB: 11436 mi / 18405 km
Terra Nova Bay [Mario Zucchelli Station], AQ

Find:

   beyond  
but within

Other Information
Maps:
NOTAMs:
Links:
Sources:

  
  • flag of Norway
  

Sectional Chart

Flight Planning
at skyvector.com

Satellite Image

Google Maps Satellite view

 

Copyright © 2004-2018 Karl L. Swartz. All rights reserved.
The Great Circle Mapper name and logo are trademarks of the Great Circle Mapper.
All other trademarks mentioned herein belong to their respective owners.
Please see credits for attibutions and further copyright information.

  Follow gcmap on Facebook Follow gcmap on Twitter Follow gcmap on Google+ GCmap on LinkedIn

hCard Microformat

Geo Microformat